Time;durP1;ratioP1;P1;durP2;ratioP2;P2;SDS_P1;SDS_P2;PMS_P1;PMS_P2;Temp;Humidity;BMP_temperature;BMP_pressure;BME280_temperature;BME280_humidity;BME280_pressure;Samples;Min_cycle;Max_cycle;Signal;HPM_P1;HPM_P2
2021/06/04 00:01:30;;;;;;;;;;;19.30;99.90;;;;;;5134028;27;19903;-75
2021/06/04 00:03:56;;;;;;;;;;;19.30;99.90;;;;;;5134683;27;19948;-75
2021/06/04 00:06:22;;;;;;;;;;;19.20;99.90;;;;;;5133754;27;19957;-75
2021/06/04 00:08:49;;;;;;;;;;;19.20;99.90;;;;;;5134350;27;19953;-75
2021/06/04 00:11:17;;;;;;;;;;;19.10;99.90;;;;;;5134376;27;20024;-75
2021/06/04 00:13:44;;;;;;;;;;;19.10;99.90;;;;;;5133684;28;19904;-74
2021/06/04 00:16:13;;;;;;;;;;;19.10;99.90;;;;;;5134281;28;20005;-74
2021/06/04 00:18:39;;;;;;;;;;;19.10;99.90;;;;;;5134270;28;19990;-75
2021/06/04 00:21:06;;;;;;;;;;;19.10;99.90;;;;;;5133470;28;19907;-75
2021/06/04 00:23:32;;;;;;;;;;;19.00;99.90;;;;;;5134382;28;19911;-74
2021/06/04 00:25:58;;;;;;;;;;;19.00;99.90;;;;;;5134284;28;19915;-75
2021/06/04 00:28:23;;;;;;;;;;;18.90;99.90;;;;;;5133458;28;19904;-74
2021/06/04 00:30:49;;;;;;;;;;;18.90;99.90;;;;;;5134085;28;19990;-75
2021/06/04 00:33:14;;;;;;;;;;;18.80;99.90;;;;;;5134076;27;19904;-74
2021/06/04 00:35:40;;;;;;;;;;;18.90;99.90;;;;;;5137561;27;19928;-75
2021/06/04 00:38:07;;;;;;;;;;;18.80;99.90;;;;;;5138213;27;20355;-75
2021/06/04 00:40:35;;;;;;;;;;;18.80;99.90;;;;;;5138158;27;19903;-74
2021/06/04 00:43:01;;;;;;;;;;;18.70;99.90;;;;;;5137430;27;19910;-74
2021/06/04 00:45:30;;;;;;;;;;;18.70;99.90;;;;;;5137848;27;19915;-75
2021/06/04 00:47:56;;;;;;;;;;;18.60;99.90;;;;;;5138202;27;19903;-74
2021/06/04 00:50:43;;;;;;;;;;;18.60;99.90;;;;;;5137596;27;19910;-74
2021/06/04 00:53:09;;;;;;;;;;;18.50;99.90;;;;;;5138296;27;19903;-74
2021/06/04 00:55:35;;;;;;;;;;;18.50;99.90;;;;;;5137321;27;19903;-74
2021/06/04 00:58:01;;;;;;;;;;;18.40;99.90;;;;;;5138054;27;19903;-74
2021/06/04 01:00:37;;;;;;;;;;;18.40;99.90;;;;;;5138004;27;19911;-74
2021/06/04 01:03:03;;;;;;;;;;;18.30;99.90;;;;;;5137081;27;19903;-75
2021/06/04 01:05:30;;;;;;;;;;;18.30;99.90;;;;;;5138298;27;19915;-75
2021/06/04 01:08:07;;;;;;;;;;;18.20;99.90;;;;;;5137773;27;19903;-74
2021/06/04 01:10:51;;;;;;;;;;;18.20;99.90;;;;;;5136778;27;20276;-73
2021/06/04 01:13:17;;;;;;;;;;;18.10;99.90;;;;;;5137788;27;19903;-74
2021/06/04 01:16:01;;;;;;;;;;;18.00;99.90;;;;;;5137512;27;20022;-75
2021/06/04 01:18:46;;;;;;;;;;;18.00;99.90;;;;;;5137084;27;19904;-75
2021/06/04 01:21:24;;;;;;;;;;;17.90;99.90;;;;;;5138043;27;20361;-75
2021/06/04 01:23:54;;;;;;;;;;;17.90;99.90;;;;;;5137130;27;19950;-75
2021/06/04 01:26:19;;;;;;;;;;;17.80;99.90;;;;;;5137345;27;19964;-74
2021/06/04 01:28:48;;;;;;;;;;;17.80;99.90;;;;;;5137329;27;19904;-74
2021/06/04 01:31:17;;;;;;;;;;;17.80;99.90;;;;;;5136755;27;19911;-74
2021/06/04 01:33:54;;;;;;;;;;;17.70;99.90;;;;;;5137498;27;20284;-74
2021/06/04 01:36:22;;;;;;;;;;;17.60;99.90;;;;;;5137295;27;20286;-74
2021/06/04 01:38:48;;;;;;;;;;;17.60;99.90;;;;;;5136832;27;19909;-74
2021/06/04 01:41:15;;;;;;;;;;;17.60;99.90;;;;;;5137021;27;19907;-74
2021/06/04 01:43:43;;;;;;;;;;;17.60;99.90;;;;;;5136695;27;20357;-74
2021/06/04 01:46:29;;;;;;;;;;;17.60;99.90;;;;;;5136059;27;19915;-75
2021/06/04 01:48:56;;;;;;;;;;;17.60;99.90;;;;;;5137649;27;19911;-75
2021/06/04 01:51:22;;;;;;;;;;;17.50;99.90;;;;;;5137490;27;19931;-74
2021/06/04 01:53:58;;;;;;;;;;;17.50;99.90;;;;;;5135955;27;19907;-74
2021/06/04 01:56:26;;;;;;;;;;;17.40;99.90;;;;;;5137198;27;19907;-75
2021/06/04 01:58:53;;;;;;;;;;;17.40;99.90;;;;;;5135986;27;19904;-74
2021/06/04 02:01:23;;;;;;;;;;;17.40;99.90;;;;;;5136685;27;19903;-74
2021/06/04 02:03:48;;;;;;;;;;;17.40;99.90;;;;;;5136597;27;19910;-74
2021/06/04 02:06:15;;;;;;;;;;;17.40;99.90;;;;;;5135842;27;19915;-74
2021/06/04 02:08:46;;;;;;;;;;;17.30;99.90;;;;;;5136591;27;19910;-74
2021/06/04 02:11:13;;;;;;;;;;;17.30;99.90;;;;;;5136419;27;19907;-74
2021/06/04 02:13:40;;;;;;;;;;;17.30;99.90;;;;;;5135707;27;20002;-75
2021/06/04 02:16:25;;;;;;;;;;;17.30;99.90;;;;;;5136102;27;19956;-75
2021/06/04 02:18:59;;;;;;;;;;;17.30;99.90;;;;;;5136195;27;19925;-74
2021/06/04 02:21:29;;;;;;;;;;;17.20;99.90;;;;;;5135492;27;19907;-75
2021/06/04 02:24:04;;;;;;;;;;;17.20;99.90;;;;;;5136347;27;20331;-74
2021/06/04 02:26:44;;;;;;;;;;;17.20;99.90;;;;;;5135930;27;20376;-73
2021/06/04 02:29:22;;;;;;;;;;;17.20;99.90;;;;;;5135617;27;19904;-75
2021/06/04 02:31:53;;;;;;;;;;;17.20;99.90;;;;;;5136215;27;19910;-75
2021/06/04 02:34:21;;;;;;;;;;;17.30;99.90;;;;;;5135317;27;19942;-74
2021/06/04 02:36:52;;;;;;;;;;;17.30;99.90;;;;;;5135788;27;20346;-74
2021/06/04 02:39:32;;;;;;;;;;;17.30;99.90;;;;;;5136179;27;19909;-74
2021/06/04 02:41:59;;;;;;;;;;;17.30;99.90;;;;;;5135141;27;19925;-75
2021/06/04 02:44:27;;;;;;;;;;;17.30;99.90;;;;;;5135555;27;19919;-74
2021/06/04 02:47:01;;;;;;;;;;;17.40;99.90;;;;;;5135631;27;19920;-75
2021/06/04 02:49:27;;;;;;;;;;;17.40;99.90;;;;;;5134731;27;19903;-75
2021/06/04 02:52:09;;;;;;;;;;;17.40;99.90;;;;;;5135644;27;19903;-75
2021/06/04 02:54:36;;;;;;;;;;;17.40;99.90;;;;;;5135813;27;20002;-75
2021/06/04 02:57:07;;;;;;;;;;;17.40;99.90;;;;;;5134164;27;19903;-75
2021/06/04 02:59:35;;;;;;;;;;;17.40;99.90;;;;;;5135481;27;19922;-74
2021/06/04 03:02:03;;;;;;;;;;;17.40;99.90;;;;;;5135379;27;20040;-74
2021/06/04 03:04:30;;;;;;;;;;;17.40;99.90;;;;;;5135545;27;19907;-74
2021/06/04 03:06:56;;;;;;;;;;;17.30;99.90;;;;;;5135204;27;19918;-74
2021/06/04 03:09:27;;;;;;;;;;;17.30;99.90;;;;;;5134796;27;19904;-76
2021/06/04 03:11:55;;;;;;;;;;;17.30;99.90;;;;;;5136041;27;20001;-75
2021/06/04 03:14:21;;;;;;;;;;;17.30;99.90;;;;;;5135224;27;19903;-75
2021/06/04 03:16:47;;;;;;;;;;;17.20;99.90;;;;;;5134567;27;19903;-75
2021/06/04 03:19:14;;;;;;;;;;;17.30;99.90;;;;;;5134828;27;20373;-75
2021/06/04 03:21:44;;;;;;;;;;;17.20;99.90;;;;;;5135025;27;19908;-75
2021/06/04 03:24:11;;;;;;;;;;;17.20;99.90;;;;;;5134107;27;19950;-75
2021/06/04 03:26:37;;;;;;;;;;;17.20;99.90;;;;;;5135135;27;20331;-74
2021/06/04 03:29:06;;;;;;;;;;;17.20;99.90;;;;;;5136015;27;19903;-74
2021/06/04 03:31:33;;;;;;;;;;;17.20;99.90;;;;;;5134208;27;19911;-74
2021/06/04 03:33:59;;;;;;;;;;;17.20;99.90;;;;;;5135045;27;19904;-75
2021/06/04 03:36:27;;;;;;;;;;;17.30;99.90;;;;;;5134938;27;19907;-75
2021/06/04 03:38:53;;;;;;;;;;;17.30;99.90;;;;;;5134398;27;20011;-74
2021/06/04 03:41:20;;;;;;;;;;;17.30;99.90;;;;;;5135532;27;19904;-75
2021/06/04 03:43:46;;;;;;;;;;;17.30;99.90;;;;;;5135010;27;19983;-74
2021/06/04 03:46:11;;;;;;;;;;;17.30;99.90;;;;;;5134025;27;19915;-75
2021/06/04 03:48:37;;;;;;;;;;;17.30;99.90;;;;;;5134869;27;19903;-75
2021/06/04 03:51:10;;;;;;;;;;;17.30;99.90;;;;;;5134796;27;20251;-75
2021/06/04 03:53:35;;;;;;;;;;;17.30;99.90;;;;;;5133720;27;19956;-75
2021/06/04 03:56:01;;;;;;;;;;;17.40;99.90;;;;;;5134440;27;19907;-74
2021/06/04 03:58:28;;;;;;;;;;;17.40;99.90;;;;;;5133456;27;20018;-75
2021/06/04 04:01:04;;;;;;;;;;;17.40;99.90;;;;;;5134678;27;19911;-74
2021/06/04 04:03:29;;;;;;;;;;;17.40;99.90;;;;;;5134353;27;19910;-75
2021/06/04 04:05:55;;;;;;;;;;;17.40;99.90;;;;;;5133607;27;19912;-74
2021/06/04 04:08:22;;;;;;;;;;;17.50;99.90;;;;;;5134542;27;19918;-74
2021/06/04 04:10:48;;;;;;;;;;;17.50;99.90;;;;;;5134128;27;19903;-75
2021/06/04 04:13:16;;;;;;;;;;;17.50;99.90;;;;;;5133584;27;20378;-75
2021/06/04 04:15:42;;;;;;;;;;;17.50;99.90;;;;;;5134451;28;20255;-75
2021/06/04 04:18:07;;;;;;;;;;;17.50;99.90;;;;;;5134277;28;19910;-75
2021/06/04 04:20:34;;;;;;;;;;;17.50;99.90;;;;;;5133604;28;19903;-74
2021/06/04 04:23:02;;;;;;;;;;;17.40;99.90;;;;;;5133972;28;20335;-76
2021/06/04 04:25:30;;;;;;;;;;;17.50;99.90;;;;;;5134109;28;20354;-74
2021/06/04 04:27:55;;;;;;;;;;;17.50;99.90;;;;;;5133725;28;19943;-74
2021/06/04 04:30:21;;;;;;;;;;;17.50;99.90;;;;;;5134323;28;20374;-74
2021/06/04 04:32:47;;;;;;;;;;;17.50;99.90;;;;;;5134336;28;19951;-74
2021/06/04 04:35:16;;;;;;;;;;;17.60;99.90;;;;;;5133514;28;19908;-75
2021/06/04 04:37:41;;;;;;;;;;;17.60;99.90;;;;;;5134205;28;19931;-74
2021/06/04 04:40:08;;;;;;;;;;;17.50;99.90;;;;;;5134073;28;19914;-75
2021/06/04 04:42:33;;;;;;;;;;;17.60;99.90;;;;;;5133532;28;19904;-74
2021/06/04 04:44:59;;;;;;;;;;;17.70;99.90;;;;;;5133801;28;19916;-75
2021/06/04 04:47:24;;;;;;;;;;;17.70;99.90;;;;;;5134244;28;20259;-75
2021/06/04 04:49:50;;;;;;;;;;;17.80;99.90;;;;;;5133263;28;19903;-75
2021/06/04 04:52:15;;;;;;;;;;;17.80;99.90;;;;;;5133736;28;19903;-75
2021/06/04 04:54:47;;;;;;;;;;;17.90;99.90;;;;;;5133185;28;19911;-74
2021/06/04 04:57:14;;;;;;;;;;;18.00;99.90;;;;;;5134127;28;19911;-75
2021/06/04 04:59:40;;;;;;;;;;;17.90;99.90;;;;;;5134021;28;19904;-75
2021/06/04 05:02:06;;;;;;;;;;;18.00;99.90;;;;;;5133346;28;19903;-75
2021/06/04 05:04:32;;;;;;;;;;;18.00;99.90;;;;;;5133835;28;19910;-74
2021/06/04 05:06:58;;;;;;;;;;;18.00;99.90;;;;;;5134001;28;19981;-75
2021/06/04 05:09:23;;;;;;;;;;;18.10;99.90;;;;;;5133285;28;20335;-74
2021/06/04 05:11:49;;;;;;;;;;;18.20;99.90;;;;;;5133930;28;19918;-75
2021/06/04 05:14:15;;;;;;;;;;;18.20;99.90;;;;;;5133858;28;19907;-75
2021/06/04 05:16:41;;;;;;;;;;;18.30;99.90;;;;;;5133012;28;19907;-75
2021/06/04 05:19:08;;;;;;;;;;;18.30;99.90;;;;;;5133616;27;20014;-75
2021/06/04 05:21:34;;;;;;;;;;;18.40;99.90;;;;;;5137568;27;19910;-75
2021/06/04 05:24:00;;;;;;;;;;;18.50;99.90;;;;;;5137051;27;19910;-75
2021/06/04 05:26:25;;;;;;;;;;;18.50;99.90;;;;;;5137448;27;19911;-74
2021/06/04 05:28:51;;;;;;;;;;;18.50;99.90;;;;;;5137574;27;19918;-75
2021/06/04 05:31:18;;;;;;;;;;;18.60;99.90;;;;;;5136667;27;20377;-74
2021/06/04 05:33:45;;;;;;;;;;;18.50;99.90;;;;;;5137420;27;19903;-74
2021/06/04 05:36:14;;;;;;;;;;;18.60;99.90;;;;;;5137687;27;20335;-74
2021/06/04 05:38:39;;;;;;;;;;;18.60;99.90;;;;;;5136441;27;20393;-75
2021/06/04 05:41:05;;;;;;;;;;;18.50;99.90;;;;;;5137202;27;19904;-74
2021/06/04 05:43:32;;;;;;;;;;;18.60;99.90;;;;;;5137424;27;19903;-74
2021/06/04 05:45:58;;;;;;;;;;;18.60;99.90;;;;;;5136576;27;19936;-73
2021/06/04 05:48:24;;;;;;;;;;;18.60;99.90;;;;;;5137266;27;19920;-76
2021/06/04 05:50:51;;;;;;;;;;;18.70;99.90;;;;;;5137712;27;19953;-75
2021/06/04 05:53:21;;;;;;;;;;;18.70;99.90;;;;;;5137028;27;19903;-75
2021/06/04 05:55:47;;;;;;;;;;;18.80;99.90;;;;;;5137066;27;19910;-74
2021/06/04 05:58:14;;;;;;;;;;;19.00;99.90;;;;;;5136146;27;19907;-75
2021/06/04 06:00:42;;;;;;;;;;;19.10;99.90;;;;;;5137030;27;19904;-75
2021/06/04 06:03:08;;;;;;;;;;;19.20;99.90;;;;;;5136958;27;19903;-75
2021/06/04 06:05:34;;;;;;;;;;;19.30;99.90;;;;;;5135784;27;20043;-74
2021/06/04 06:07:59;;;;;;;;;;;19.40;99.90;;;;;;5137207;27;19910;-75
2021/06/04 06:10:25;;;;;;;;;;;19.50;99.90;;;;;;5137213;27;20408;-75
2021/06/04 06:12:51;;;;;;;;;;;19.60;99.90;;;;;;5136588;27;19903;-75
2021/06/04 06:15:17;;;;;;;;;;;19.70;99.90;;;;;;5137123;27;19903;-75
2021/06/04 06:17:43;;;;;;;;;;;19.80;99.90;;;;;;5137691;27;19903;-74
2021/06/04 06:20:10;;;;;;;;;;;19.90;99.90;;;;;;5136516;27;20304;-75
2021/06/04 06:22:35;;;;;;;;;;;19.90;99.90;;;;;;5137269;27;19935;-75
2021/06/04 06:25:01;;;;;;;;;;;19.90;99.90;;;;;;5136589;27;19904;-75
2021/06/04 06:27:26;;;;;;;;;;;19.90;99.90;;;;;;5135830;27;19908;-75
2021/06/04 06:29:52;;;;;;;;;;;20.00;99.90;;;;;;5136428;27;20006;-75
2021/06/04 06:32:20;;;;;;;;;;;20.00;99.90;;;;;;5135026;27;19903;-75
2021/06/04 06:34:47;;;;;;;;;;;20.00;99.90;;;;;;5135474;27;19998;-75
2021/06/04 06:37:12;;;;;;;;;;;20.10;99.90;;;;;;5136185;27;19903;-75
2021/06/04 06:39:38;;;;;;;;;;;20.10;99.90;;;;;;5136081;27;19910;-75
2021/06/04 06:42:05;;;;;;;;;;;20.20;99.90;;;;;;5135390;27;19911;-74
2021/06/04 06:44:32;;;;;;;;;;;20.20;99.90;;;;;;5135762;27;20271;-75
2021/06/04 06:46:58;;;;;;;;;;;20.20;99.90;;;;;;5136275;27;19912;-75
2021/06/04 06:49:24;;;;;;;;;;;20.20;99.90;;;;;;5135083;27;19910;-75
2021/06/04 06:51:49;;;;;;;;;;;20.20;99.90;;;;;;5136330;27;19903;-75
2021/06/04 06:54:17;;;;;;;;;;;20.30;99.90;;;;;;5134999;27;19917;-75
2021/06/04 06:56:44;;;;;;;;;;;20.30;99.90;;;;;;5135905;27;19947;-76
2021/06/04 06:59:10;;;;;;;;;;;20.40;99.90;;;;;;5135663;27;20311;-75
2021/06/04 07:01:36;;;;;;;;;;;20.40;99.90;;;;;;5134825;27;20006;-76
2021/06/04 07:04:01;;;;;;;;;;;20.50;99.90;;;;;;5135957;27;19903;-75
2021/06/04 07:06:28;;;;;;;;;;;20.50;99.90;;;;;;5135121;27;19918;-76
2021/06/04 07:08:54;;;;;;;;;;;20.60;99.90;;;;;;5134417;27;19961;-76
2021/06/04 07:11:20;;;;;;;;;;;20.60;99.90;;;;;;5135298;27;19911;-74
2021/06/04 07:13:48;;;;;;;;;;;20.70;99.90;;;;;;5135093;27;19903;-75
2021/06/04 07:16:13;;;;;;;;;;;20.80;99.90;;;;;;5134570;27;19914;-74
2021/06/04 07:18:39;;;;;;;;;;;20.80;99.90;;;;;;5135677;27;20259;-74
2021/06/04 07:21:06;;;;;;;;;;;20.80;99.90;;;;;;5135046;27;19904;-75
2021/06/04 07:23:32;;;;;;;;;;;20.90;99.90;;;;;;5134364;27;19903;-75
2021/06/04 07:25:58;;;;;;;;;;;21.00;99.90;;;;;;5135194;27;19934;-76
2021/06/04 07:28:25;;;;;;;;;;;20.90;99.90;;;;;;5135157;27;19904;-75
2021/06/04 07:30:51;;;;;;;;;;;21.00;99.90;;;;;;5134518;27;19903;-76
2021/06/04 07:33:22;;;;;;;;;;;21.00;99.90;;;;;;5116698;27;19956;-75
2021/06/04 07:35:49;;;;;;;;;;;20.70;99.90;;;;;;5134972;27;20019;-74
2021/06/04 07:38:14;;;;;;;;;;;21.10;99.90;;;;;;5134140;27;19907;-74
2021/06/04 07:40:40;;;;;;;;;;;21.20;99.90;;;;;;5135290;27;19910;-75
2021/06/04 07:43:07;;;;;;;;;;;21.20;99.90;;;;;;5134468;27;20042;-74
2021/06/04 07:45:34;;;;;;;;;;;21.20;99.90;;;;;;5133453;27;19919;-74
2021/06/04 07:48:00;;;;;;;;;;;21.30;99.90;;;;;;5134486;27;19904;-74
2021/06/04 07:50:26;;;;;;;;;;;21.30;99.90;;;;;;5134272;27;19973;-75
2021/06/04 07:52:51;;;;;;;;;;;21.40;99.90;;;;;;5134650;27;19904;-75
2021/06/04 07:55:17;;;;;;;;;;;21.40;99.90;;;;;;5134821;27;20248;-75
2021/06/04 07:57:42;;;;;;;;;;;21.50;99.90;;;;;;5133759;27;19904;-75
2021/06/04 08:00:15;;;;;;;;;;;21.70;99.90;;;;;;5134176;27;19926;-75
2021/06/04 08:02:40;;;;;;;;;;;21.80;99.90;;;;;;5134086;27;19904;-74
2021/06/04 08:05:06;;;;;;;;;;;21.80;99.90;;;;;;5132806;27;19914;-75
2021/06/04 08:07:32;;;;;;;;;;;21.80;99.90;;;;;;5134257;27;19934;-75
2021/06/04 08:09:57;;;;;;;;;;;21.90;99.90;;;;;;5134048;27;19903;-75
2021/06/04 08:12:30;;;;;;;;;;;22.00;99.90;;;;;;5133168;27;19939;-74
2021/06/04 08:15:03;;;;;;;;;;;22.00;99.90;;;;;;5134473;27;19909;-74
2021/06/04 08:17:29;;;;;;;;;;;22.10;99.90;;;;;;5134103;27;19903;-75
2021/06/04 08:19:54;;;;;;;;;;;22.10;99.90;;;;;;5133048;27;19914;-74
2021/06/04 08:22:20;;;;;;;;;;;22.20;99.90;;;;;;5133706;28;20434;-75
2021/06/04 08:24:46;;;;;;;;;;;22.30;99.90;;;;;;5134272;28;19956;-76
2021/06/04 08:27:14;;;;;;;;;;;22.30;99.90;;;;;;5133394;28;19911;-73
2021/06/04 08:29:40;;;;;;;;;;;22.40;99.90;;;;;;5134124;28;20126;-75
2021/06/04 08:32:06;;;;;;;;;;;22.40;99.90;;;;;;5134189;28;20023;-76
2021/06/04 08:34:31;;;;;;;;;;;22.40;99.90;;;;;;5133155;28;19911;-74
2021/06/04 08:37:01;;;;;;;;;;;22.40;99.90;;;;;;5133885;28;19923;-75
2021/06/04 08:39:30;;;;;;;;;;;22.60;99.90;;;;;;5133640;28;19904;-75
2021/06/04 08:42:14;;;;;;;;;;;22.70;99.90;;;;;;5133297;28;20050;-75
2021/06/04 08:44:54;;;;;;;;;;;22.70;99.90;;;;;;5133470;28;19915;-75
2021/06/04 08:47:24;;;;;;;;;;;22.70;99.90;;;;;;5133247;28;20059;-75
2021/06/04 08:49:52;;;;;;;;;;;22.80;99.90;;;;;;5133605;28;19903;-75
2021/06/04 08:52:23;;;;;;;;;;;22.90;99.90;;;;;;5133605;28;19903;-75
2021/06/04 08:54:59;;;;;;;;;;;23.00;99.90;;;;;;5134154;27;19918;-75
2021/06/04 08:57:48;;;;;;;;;;;23.10;99.90;;;;;;5138073;27;20052;-76
2021/06/04 09:00:16;;;;;;;;;;;23.20;99.90;;;;;;5137564;27;19926;-76
2021/06/04 09:02:47;;;;;;;;;;;23.30;99.90;;;;;;5136800;27;19904;-74
2021/06/04 09:05:15;;;;;;;;;;;23.40;99.90;;;;;;5137758;27;19907;-74
2021/06/04 09:07:43;;;;;;;;;;;23.50;99.90;;;;;;5138378;27;20316;-76
2021/06/04 09:10:36;;;;;;;;;;;23.60;99.90;;;;;;5136987;27;20345;-76
2021/06/04 09:13:06;;;;;;;;;;;23.80;99.90;;;;;;5098511;27;19904;-75
2021/06/04 09:15:34;;;;;;;;;;;23.70;99.90;;;;;;5137239;27;19903;-75
2021/06/04 09:18:06;;;;;;;;;;;23.80;99.90;;;;;;5137740;27;20343;-74
2021/06/04 09:20:43;;;;;;;;;;;23.80;99.90;;;;;;5137867;27;19921;-74
2021/06/04 09:23:10;;;;;;;;;;;23.90;99.90;;;;;;5136892;27;20393;-74
2021/06/04 09:25:36;;;;;;;;;;;24.00;99.90;;;;;;5137962;27;19915;-74
2021/06/04 09:28:10;;;;;;;;;;;24.30;99.90;;;;;;5137987;27;19904;-75
2021/06/04 09:30:41;;;;;;;;;;;24.40;99.60;;;;;;5136980;27;19934;-74
2021/06/04 09:33:11;;;;;;;;;;;24.60;99.70;;;;;;5137280;27;19903;-75
2021/06/04 09:35:38;;;;;;;;;;;24.60;98.80;;;;;;5137392;27;19990;-75
2021/06/04 09:38:30;;;;;;;;;;;24.70;98.60;;;;;;5136409;27;19956;-75
2021/06/04 09:40:56;;;;;;;;;;;24.70;98.20;;;;;;5137662;27;20002;-75
2021/06/04 09:43:29;;;;;;;;;;;24.80;98.40;;;;;;5136775;27;19939;-74
2021/06/04 09:45:58;;;;;;;;;;;24.80;98.30;;;;;;5137271;27;20038;-76
2021/06/04 09:48:32;;;;;;;;;;;25.00;97.80;;;;;;5137316;27;20248;-76
2021/06/04 09:51:27;;;;;;;;;;;24.90;97.50;;;;;;5136621;27;19955;-76
2021/06/04 09:53:53;;;;;;;;;;;24.90;97.60;;;;;;5114515;27;19904;-76
2021/06/04 09:56:31;;;;;;;;;;;24.90;97.70;;;;;;5136788;27;19903;-75
2021/06/04 09:59:01;;;;;;;;;;;25.10;97.60;;;;;;5136428;27;19994;-76
2021/06/04 10:01:31;;;;;;;;;;;25.30;97.40;;;;;;5136996;27;19928;-76
2021/06/04 10:04:12;;;;;;;;;;;25.50;97.60;;;;;;5136687;27;20374;-76
2021/06/04 10:06:40;;;;;;;;;;;25.70;96.90;;;;;;5136640;27;19912;-76
2021/06/04 10:09:23;;;;;;;;;;;25.90;96.70;;;;;;5136823;27;19940;-74
2021/06/04 10:11:51;;;;;;;;;;;25.80;96.50;;;;;;5136116;27;19926;-75
2021/06/04 10:14:22;;;;;;;;;;;26.00;96.20;;;;;;5136486;27;20274;-75
2021/06/04 10:19:21;;;;;;;;;;;26.00;95.60;;;;;;5135884;27;20308;-76
2021/06/04 10:21:47;;;;;;;;;;;26.10;95.10;;;;;;5136181;27;20309;-76
2021/06/04 10:24:25;;;;;;;;;;;26.30;94.70;;;;;;5136277;27;19904;-76
2021/06/04 10:26:53;;;;;;;;;;;26.60;95.00;;;;;;5135092;27;20355;-75
2021/06/04 10:29:18;;;;;;;;;;;26.80;94.00;;;;;;5136088;27;19988;-74
2021/06/04 10:31:52;;;;;;;;;;;26.60;94.00;;;;;;5136337;27;19908;-75
2021/06/04 10:34:25;;;;;;;;;;;26.60;93.90;;;;;;5135142;27;19976;-75
2021/06/04 10:36:53;;;;;;;;;;;26.50;93.10;;;;;;5135992;27;19903;-75
2021/06/04 10:39:22;;;;;;;;;;;26.50;93.40;;;;;;5135649;27;20243;-75
2021/06/04 10:41:54;;;;;;;;;;;26.70;93.30;;;;;;5136302;27;19926;-75
2021/06/04 10:44:38;;;;;;;;;;;26.80;92.70;;;;;;5136127;27;20359;-76
2021/06/04 10:47:13;;;;;;;;;;;26.80;92.40;;;;;;5117043;27;20282;-76
2021/06/04 10:50:01;;;;;;;;;;;26.70;92.20;;;;;;5135991;27;20404;-75
2021/06/04 10:52:35;;;;;;;;;;;26.70;92.60;;;;;;5136698;27;19903;-75
2021/06/04 10:55:05;;;;;;;;;;;26.80;92.40;;;;;;5135295;27;19949;-74
2021/06/04 10:57:49;;;;;;;;;;;26.90;92.10;;;;;;5135870;27;20359;-74
2021/06/04 11:00:23;;;;;;;;;;;26.70;91.30;;;;;;5135370;27;20416;-75
2021/06/04 11:02:59;;;;;;;;;;;26.40;92.40;;;;;;5135203;27;19957;-75
2021/06/04 11:05:43;;;;;;;;;;;26.20;93.10;;;;;;5135410;27;20010;-76
2021/06/04 11:08:35;;;;;;;;;;;26.10;93.40;;;;;;5134633;27;19907;-75
2021/06/04 11:11:09;;;;;;;;;;;26.00;93.90;;;;;;5129961;27;19956;-75
2021/06/04 11:13:46;;;;;;;;;;;25.70;93.60;;;;;;5134960;27;19959;-75
2021/06/04 11:16:17;;;;;;;;;;;26.10;93.40;;;;;;5134327;27;19903;-75
2021/06/04 11:18:43;;;;;;;;;;;26.10;92.90;;;;;;5134366;27;19972;-74
2021/06/04 11:21:23;;;;;;;;;;;26.30;92.60;;;;;;5134811;27;20284;-74
2021/06/04 11:23:51;;;;;;;;;;;26.40;92.10;;;;;;5134336;27;19912;-75
2021/06/04 11:26:21;;;;;;;;;;;26.30;92.20;;;;;;5134640;27;19915;-75
2021/06/04 11:28:58;;;;;;;;;;;26.40;92.70;;;;;;5134077;27;19946;-74
2021/06/04 11:31:42;;;;;;;;;;;26.50;92.30;;;;;;5134892;27;19903;-74
2021/06/04 11:34:21;;;;;;;;;;;26.60;91.70;;;;;;5134475;27;19907;-74
2021/06/04 11:36:47;;;;;;;;;;;26.60;91.60;;;;;;5134040;27;19914;-74
2021/06/04 11:39:17;;;;;;;;;;;26.70;92.00;;;;;;5135046;27;19904;-75
2021/06/04 11:41:46;;;;;;;;;;;26.70;90.90;;;;;;5134862;27;19925;-75
2021/06/04 11:44:21;;;;;;;;;;;26.70;91.30;;;;;;5134148;27;19915;-76
2021/06/04 11:47:06;;;;;;;;;;;26.70;90.50;;;;;;5134556;27;19934;-74
2021/06/04 11:49:52;;;;;;;;;;;26.70;90.60;;;;;;5134280;27;19903;-75
2021/06/04 11:52:20;;;;;;;;;;;26.70;91.00;;;;;;5135137;27;19926;-74
2021/06/04 11:54:45;;;;;;;;;;;26.70;90.60;;;;;;5135963;27;19910;-75
2021/06/04 11:57:43;;;;;;;;;;;26.60;91.20;;;;;;5134840;27;19904;-75
2021/06/04 12:00:12;;;;;;;;;;;26.80;91.10;;;;;;5077803;27;20333;-76
2021/06/04 12:02:45;;;;;;;;;;;26.80;89.90;;;;;;5116185;27;19908;-76
2021/06/04 12:05:16;;;;;;;;;;;26.90;89.70;;;;;;5133757;27;19991;-75
2021/06/04 12:08:02;;;;;;;;;;;27.10;90.10;;;;;;5134731;27;20355;-76
2021/06/04 12:10:53;;;;;;;;;;;27.50;89.50;;;;;;5098455;27;20374;-75
2021/06/04 12:13:34;;;;;;;;;;;27.40;89.40;;;;;;5135666;27;19904;-77
2021/06/04 12:16:18;;;;;;;;;;;27.40;90.10;;;;;;5134187;27;19948;-76
2021/06/04 12:19:02;;;;;;;;;;;27.30;88.50;;;;;;5133322;27;20305;-76
2021/06/04 12:21:44;;;;;;;;;;;27.30;89.10;;;;;;5134126;27;19908;-75
2021/06/04 12:24:29;;;;;;;;;;;27.30;88.60;;;;;;5134028;28;19903;-75
2021/06/04 12:26:59;;;;;;;;;;;27.20;85.60;;;;;;5133014;28;19929;-75
2021/06/04 12:29:26;;;;;;;;;;;27.10;84.60;;;;;;5134416;27;20320;-76
2021/06/04 12:31:54;;;;;;;;;;;27.10;85.30;;;;;;5137732;27;19948;-75
2021/06/04 12:34:40;;;;;;;;;;;27.20;87.00;;;;;;5138397;27;19903;-77
2021/06/04 12:37:18;;;;;;;;;;;27.30;82.30;;;;;;5120692;27;19904;-76
2021/06/04 12:39:56;;;;;;;;;;;27.50;82.80;;;;;;5137522;27;20350;-76
2021/06/04 12:42:25;;;;;;;;;;;27.70;81.90;;;;;;5138592;27;19936;-75
2021/06/04 12:45:02;;;;;;;;;;;27.80;81.30;;;;;;5138365;27;19923;-76
2021/06/04 12:47:33;;;;;;;;;;;27.90;81.60;;;;;;5137406;27;19915;-75
2021/06/04 12:50:10;;;;;;;;;;;28.10;81.80;;;;;;5138229;27;19903;-75
2021/06/04 12:52:36;;;;;;;;;;;28.30;81.20;;;;;;5138073;27;20355;-75
2021/06/04 12:55:20;;;;;;;;;;;28.50;81.90;;;;;;5137122;27;19990;-74
2021/06/04 12:57:46;;;;;;;;;;;28.80;81.60;;;;;;5137735;27;19917;-76
2021/06/04 13:00:21;;;;;;;;;;;28.80;80.50;;;;;;5137093;27;19907;-74
2021/06/04 13:02:52;;;;;;;;;;;28.90;81.00;;;;;;5138115;27;19993;-75
2021/06/04 13:05:17;;;;;;;;;;;29.00;81.60;;;;;;5137656;27;19903;-76
2021/06/04 13:07:43;;;;;;;;;;;29.20;80.80;;;;;;5136767;27;19910;-74
2021/06/04 13:10:12;;;;;;;;;;;29.40;79.80;;;;;;5137795;27;19911;-75
2021/06/04 13:12:39;;;;;;;;;;;29.40;79.10;;;;;;5137579;27;19904;-76
2021/06/04 13:15:12;;;;;;;;;;;29.40;77.80;;;;;;5136987;27;19914;-74
2021/06/04 13:17:37;;;;;;;;;;;29.30;78.40;;;;;;5137575;27;19945;-74
2021/06/04 13:20:16;;;;;;;;;;;29.40;78.10;;;;;;5137560;27;20007;-76
2021/06/04 13:22:43;;;;;;;;;;;29.30;77.90;;;;;;5136754;27;19908;-76
2021/06/04 13:25:15;;;;;;;;;;;29.00;78.30;;;;;;5137566;27;20243;-74
2021/06/04 13:27:42;;;;;;;;;;;28.80;78.60;;;;;;5137598;27;19909;-76
2021/06/04 13:30:09;;;;;;;;;;;28.40;79.90;;;;;;5118240;27;19910;-75
2021/06/04 13:32:39;;;;;;;;;;;28.10;80.60;;;;;;5137056;27;19960;-74
2021/06/04 13:35:11;;;;;;;;;;;27.90;82.20;;;;;;5136774;27;19960;-74
2021/06/04 13:37:40;;;;;;;;;;;27.90;81.70;;;;;;5137299;27;19990;-76
2021/06/04 13:40:07;;;;;;;;;;;27.80;82.10;;;;;;5136713;27;19991;-74
2021/06/04 13:42:37;;;;;;;;;;;27.70;82.50;;;;;;5136447;27;20275;-74
2021/06/04 13:45:04;;;;;;;;;;;27.60;82.90;;;;;;5135990;27;19976;-75
2021/06/04 13:47:40;;;;;;;;;;;27.50;83.40;;;;;;5135838;27;19904;-75
2021/06/04 13:50:15;;;;;;;;;;;27.50;83.40;;;;;;5135622;27;19907;-75
2021/06/04 13:52:54;;;;;;;;;;;27.60;83.00;;;;;;5136411;27;19991;-75
2021/06/04 13:55:20;;;;;;;;;;;27.60;82.30;;;;;;5136292;27;19998;-75
2021/06/04 13:57:46;;;;;;;;;;;27.90;82.00;;;;;;5135448;27;19939;-76
2021/06/04 14:00:27;;;;;;;;;;;28.00;81.60;;;;;;5136218;27;19903;-74
2021/06/04 14:03:11;;;;;;;;;;;27.90;81.80;;;;;;5136135;27;20362;-77
2021/06/04 14:05:37;;;;;;;;;;;28.10;81.30;;;;;;5137041;27;19912;-76
2021/06/04 14:08:12;;;;;;;;;;;28.30;80.90;;;;;;5136423;27;19911;-75
2021/06/04 14:10:54;;;;;;;;;;;28.50;80.20;;;;;;5135299;27;19907;-75
2021/06/04 14:13:24;;;;;;;;;;;28.90;80.10;;;;;;5136025;27;19982;-75
2021/06/04 14:15:51;;;;;;;;;;;29.10;78.40;;;;;;5138206;27;19935;-76
2021/06/04 14:18:35;;;;;;;;;;;29.10;78.20;;;;;;5136056;27;19903;-75
2021/06/04 14:21:19;;;;;;;;;;;28.80;77.80;;;;;;5140180;27;19907;-75
2021/06/04 14:23:57;;;;;;;;;;;28.50;78.80;;;;;;5136846;27;19960;-75
2021/06/04 14:26:24;;;;;;;;;;;28.20;79.80;;;;;;5135573;27;20285;-75
2021/06/04 14:29:08;;;;;;;;;;;28.10;80.10;;;;;;5136494;27;19910;-76
2021/06/04 14:31:34;;;;;;;;;;;28.10;80.60;;;;;;5135377;27;19972;-74
2021/06/04 14:33:59;;;;;;;;;;;28.20;80.70;;;;;;5136125;27;20339;-76
2021/06/04 14:36:26;;;;;;;;;;;28.10;79.00;;;;;;5136185;27;19927;-74